createdAt,value
2019-04-05T00:03:22.266Z,9.25
2019-04-05T00:08:25.737Z,8.55
2019-04-05T00:13:29.198Z,8.55
2019-04-05T00:18:32.751Z,8.18
2019-04-05T00:23:36.249Z,7.80
2019-04-05T00:28:40.270Z,8.80
2019-04-05T00:33:43.770Z,8.20
2019-04-05T00:38:47.316Z,8.53
2019-04-05T00:43:50.856Z,8.10
2019-04-05T00:48:54.331Z,8.18
2019-04-05T00:53:57.802Z,7.83
2019-04-05T00:59:01.262Z,8.53
2019-04-05T01:04:04.833Z,8.48
2019-04-05T01:09:08.884Z,7.97
2019-04-05T01:14:13.303Z,8.75
2019-04-05T01:19:17.156Z,8.05
2019-04-05T01:24:21.252Z,8.43
2019-04-05T01:29:25.902Z,8.10
2019-04-05T01:34:29.490Z,8.03
2019-04-05T01:39:33.148Z,8.13
2019-04-05T01:44:38.105Z,7.83
2019-04-05T01:49:41.678Z,8.10
2019-04-05T01:54:45.198Z,7.92
2019-04-05T01:59:48.725Z,7.90
2019-04-05T02:04:52.909Z,8.30
2019-04-05T02:09:57.229Z,7.60
2019-04-05T02:15:00.853Z,8.05
2019-04-05T02:20:06.633Z,7.92
2019-04-05T02:25:10.445Z,8.15
2019-04-05T02:30:15.473Z,8.08
2019-04-05T02:35:19.634Z,7.65
2019-04-05T02:40:25.616Z,7.65
2019-04-05T02:45:32.193Z,7.70
2019-04-05T02:50:38.742Z,7.33
2019-04-05T02:55:44.183Z,7.42
2019-04-05T03:00:47.995Z,7.33
2019-04-05T03:05:51.832Z,7.40
2019-04-05T03:11:06.745Z,7.87
2019-04-05T03:16:15.882Z,7.78
2019-04-05T03:21:22.342Z,7.75
2019-04-05T03:26:29.299Z,7.50
2019-04-05T03:31:34.351Z,7.72
2019-04-05T03:36:38.760Z,7.28
2019-04-05T03:41:42.245Z,8.13
2019-04-05T03:46:56.281Z,7.50
2019-04-05T03:51:52.232Z,8.68
2019-04-05T03:56:57.747Z,7.62
2019-04-05T04:02:01.156Z,8.08
2019-04-05T04:07:05.197Z,7.55
2019-04-05T04:12:09.015Z,7.40
2019-04-05T04:17:13.588Z,7.17
2019-04-05T04:22:23.509Z,7.67
2019-04-05T04:27:28.137Z,7.42
2019-04-05T04:32:31.641Z,7.62
2019-04-05T04:37:35.415Z,7.05
2019-04-05T04:42:39.559Z,8.23
2019-04-05T04:47:44.317Z,7.50
2019-04-05T04:52:48.290Z,7.30
2019-04-05T04:57:51.798Z,6.95
2019-04-05T05:02:55.781Z,7.40
2019-04-05T05:07:59.416Z,6.97
2019-04-05T05:13:03.424Z,7.17
2019-04-05T05:18:07.270Z,7.60
2019-04-05T05:23:11.338Z,6.95
2019-04-05T05:28:14.845Z,7.17
2019-04-05T05:33:18.690Z,7.30
2019-04-05T05:38:22.647Z,7.25
2019-04-05T05:43:26.274Z,7.25
2019-04-05T05:48:31.048Z,7.53
2019-04-05T05:53:34.905Z,6.25
2019-04-05T05:58:38.397Z,7.25
2019-04-05T06:03:41.893Z,7.20
2019-04-05T06:08:45.392Z,7.50
2019-04-05T06:13:48.848Z,7.28
2019-04-05T06:18:52.318Z,7.08
2019-04-05T06:23:55.964Z,7.62
2019-04-05T06:28:59.506Z,7.75
2019-04-05T06:34:03.011Z,6.97
2019-04-05T06:39:08.125Z,6.70
2019-04-05T06:44:11.590Z,7.35
2019-04-05T06:49:15.082Z,7.92
2019-04-05T06:54:18.675Z,6.92
2019-04-05T06:59:22.163Z,7.25
2019-04-05T07:04:25.635Z,7.37
2019-04-05T07:09:29.177Z,7.65
2019-04-05T07:14:32.708Z,7.12
2019-04-05T07:19:36.229Z,7.22
2019-04-05T07:24:39.830Z,7.53
2019-04-05T07:29:43.378Z,7.10
2019-04-05T07:34:46.887Z,7.17
2019-04-05T07:39:50.483Z,7.42
2019-04-05T07:44:53.995Z,7.58
2019-04-05T07:49:57.590Z,7.50
2019-04-05T07:55:01.159Z,7.30
2019-04-05T08:00:10.591Z,7.15
2019-04-05T08:05:14.474Z,7.15
2019-04-05T08:10:18.044Z,6.80
2019-04-05T08:15:21.535Z,7.50
2019-04-05T08:20:25.324Z,7.37
2019-04-05T08:25:28.983Z,7.10
2019-04-05T08:30:32.459Z,7.78
2019-04-05T08:35:35.941Z,7.97
2019-04-05T08:40:39.415Z,7.05
2019-04-05T08:45:42.886Z,7.25
2019-04-05T08:50:46.362Z,7.42
2019-04-05T08:55:49.852Z,7.22
2019-04-05T09:00:53.417Z,7.75
2019-04-05T09:05:56.884Z,7.90
2019-04-05T09:11:00.430Z,7.30
2019-04-05T09:16:04.101Z,7.47
2019-04-05T09:21:09.989Z,7.33
2019-04-05T09:26:12.995Z,7.58
2019-04-05T09:31:17.468Z,7.85
2019-04-05T09:36:20.943Z,8.23
2019-04-05T09:41:24.531Z,7.78
2019-04-05T09:46:28.067Z,8.43
2019-04-05T09:51:31.609Z,7.92
2019-04-05T09:56:35.101Z,8.58
2019-04-05T10:01:38.586Z,8.08
2019-04-05T10:06:42.134Z,8.45
2019-04-05T10:11:45.615Z,8.68
2019-04-05T10:16:49.147Z,8.13
2019-04-05T10:21:52.630Z,8.18
2019-04-05T10:26:56.121Z,8.53
2019-04-05T10:32:00.071Z,8.60
2019-04-05T10:37:03.630Z,8.48
2019-04-05T10:42:15.315Z,8.00
2019-04-05T10:47:19.286Z,8.25
2019-04-05T10:52:22.805Z,7.97
2019-04-05T10:57:26.454Z,8.20
2019-04-05T11:02:29.932Z,8.73
2019-04-05T11:07:35.068Z,8.30
2019-04-05T11:12:39.126Z,7.97
2019-04-05T11:17:42.679Z,7.95
2019-04-05T11:22:46.874Z,8.73
2019-04-05T11:27:50.721Z,8.78
2019-04-05T11:32:54.239Z,8.83
2019-04-05T11:37:57.796Z,8.73
2019-04-05T11:43:03.531Z,8.98
2019-04-05T11:48:08.085Z,8.45
2019-04-05T11:53:11.595Z,8.65
2019-04-05T11:58:15.204Z,8.23
2019-04-05T12:03:32.027Z,8.48
2019-04-05T12:08:35.654Z,8.13
2019-04-05T12:13:39.127Z,8.25
2019-04-05T12:18:42.605Z,8.45
2019-04-05T12:23:46.184Z,8.20
2019-04-05T12:28:49.661Z,8.95
2019-04-05T12:33:53.262Z,8.53
2019-04-05T12:38:56.983Z,8.85
2019-04-05T12:44:00.679Z,9.18
2019-04-05T12:49:04.668Z,8.80
2019-04-05T12:54:08.291Z,8.65
2019-04-05T12:59:11.746Z,8.88
2019-04-05T13:04:15.247Z,8.68
2019-04-05T13:09:18.761Z,8.45
2019-04-05T13:14:22.416Z,9.10
2019-04-05T13:19:26.040Z,8.38
2019-04-05T13:24:29.794Z,8.83
2019-04-05T13:29:33.287Z,9.08
2019-04-05T13:34:36.768Z,9.45
2019-04-05T13:39:40.248Z,8.73
2019-04-05T13:44:43.767Z,9.18
2019-04-05T13:49:47.285Z,8.60
2019-04-05T13:54:50.799Z,8.80
2019-04-05T13:59:54.483Z,10.00
2019-04-05T14:04:57.957Z,8.90
2019-04-05T14:10:01.442Z,8.58
2019-04-05T14:15:05.924Z,9.05
2019-04-05T14:20:10.235Z,9.00
2019-04-05T14:25:14.279Z,9.15
2019-04-05T14:30:17.817Z,8.75
2019-04-05T14:35:24.518Z,8.70
2019-04-05T14:40:29.397Z,9.05
2019-04-05T14:45:31.668Z,8.10
2019-04-05T14:50:35.154Z,8.93
2019-04-05T14:55:38.833Z,8.50
2019-04-05T15:00:42.352Z,9.25
2019-04-05T15:05:45.880Z,9.00
2019-04-05T15:10:51.344Z,9.28
2019-04-05T15:15:55.962Z,8.60
2019-04-05T15:20:59.835Z,8.55
2019-04-05T15:26:03.405Z,8.53
2019-04-05T15:31:06.914Z,8.65
2019-04-05T15:36:10.477Z,9.00
2019-04-05T15:41:13.949Z,9.08
2019-04-05T15:46:17.662Z,8.68
2019-04-05T15:51:24.155Z,9.03
2019-04-05T15:56:26.402Z,8.83
2019-04-05T16:01:29.942Z,9.33
2019-04-05T16:06:33.466Z,8.85
2019-04-05T16:11:37.032Z,9.05
2019-04-05T16:16:40.531Z,9.30
2019-04-05T16:21:44.013Z,8.40
2019-04-05T16:26:47.558Z,8.33
2019-04-05T16:31:51.035Z,8.30
2019-04-05T16:36:54.529Z,8.35
2019-04-05T16:41:58.076Z,8.88
2019-04-05T16:47:01.564Z,8.15
2019-04-05T16:52:05.165Z,8.65
2019-04-05T16:57:08.635Z,8.80
2019-04-05T17:02:12.101Z,8.95
2019-04-05T17:07:15.582Z,8.65
2019-04-05T17:12:19.047Z,8.33
2019-04-05T17:17:22.557Z,9.10
2019-04-05T17:22:26.068Z,7.95
2019-04-05T17:27:29.684Z,8.50
2019-04-05T17:32:33.178Z,8.23
2019-04-05T17:37:36.739Z,8.68
2019-04-05T17:42:40.214Z,8.58
2019-04-05T17:47:43.670Z,8.10
2019-04-05T17:52:47.162Z,8.75
2019-04-05T17:57:50.879Z,9.10
2019-04-05T18:02:54.359Z,8.60
2019-04-05T18:07:57.921Z,7.97
2019-04-05T18:13:01.475Z,8.70
2019-04-05T18:18:04.973Z,8.25
2019-04-05T18:23:08.522Z,8.88
2019-04-05T18:28:12.048Z,8.33
2019-04-05T18:33:15.552Z,8.63
2019-04-05T18:38:20.058Z,8.45
2019-04-05T18:43:24.149Z,8.58
2019-04-05T18:48:27.714Z,8.28
2019-04-05T18:53:37.499Z,8.53
2019-04-05T18:58:36.408Z,8.35
2019-04-05T19:03:39.951Z,8.60
2019-04-05T19:08:43.432Z,8.95
2019-04-05T19:14:00.057Z,8.48
2019-04-05T19:18:52.205Z,8.93
2019-04-05T19:23:55.703Z,8.65
2019-04-05T19:28:59.209Z,8.58
2019-04-05T19:49:18.707Z,8.53
2019-04-05T19:54:22.477Z,8.75
2019-04-05T19:59:25.979Z,8.58
2019-04-05T20:04:29.573Z,8.78
2019-04-05T20:09:33.081Z,8.80
2019-04-05T20:14:36.660Z,9.05
2019-04-05T20:19:40.198Z,9.35
2019-04-05T20:24:43.662Z,8.75
2019-04-05T20:29:47.178Z,8.93
2019-04-05T20:34:50.747Z,9.58
2019-04-05T20:39:54.863Z,9.28
2019-04-05T20:44:58.413Z,9.70
2019-04-05T20:50:01.937Z,9.30
2019-04-05T20:55:07.146Z,8.55
2019-04-05T21:00:12.923Z,9.05
2019-04-05T21:05:24.737Z,9.15
2019-04-05T21:10:22.493Z,9.03
2019-04-05T21:15:26.031Z,9.00
2019-04-05T21:20:29.506Z,8.80
2019-04-05T21:25:32.992Z,8.60
2019-04-05T21:30:36.450Z,9.10
2019-04-05T21:35:39.931Z,9.25
2019-04-05T21:40:43.402Z,8.63
2019-04-05T21:45:46.986Z,8.35
2019-04-05T21:50:50.520Z,9.45
2019-04-05T21:55:54.017Z,8.95
2019-04-05T22:01:02.522Z,9.18
2019-04-05T22:06:05.989Z,9.03
2019-04-05T22:11:09.438Z,9.28
2019-04-05T22:16:12.964Z,8.83
2019-04-05T22:21:16.469Z,9.13
2019-04-05T22:26:19.984Z,8.95
2019-04-05T22:31:23.482Z,8.73
2019-04-05T22:36:26.976Z,8.85
2019-04-05T22:41:30.505Z,8.93
2019-04-05T22:46:34.012Z,9.08
2019-04-05T22:51:37.478Z,9.13
2019-04-05T22:56:40.947Z,8.85
2019-04-05T23:01:44.415Z,9.05
2019-04-05T23:06:49.182Z,8.45
2019-04-05T23:11:52.658Z,8.68
2019-04-05T23:16:56.132Z,8.73
2019-04-05T23:22:00.912Z,8.63
2019-04-05T23:27:04.632Z,9.30
2019-04-05T23:32:08.180Z,8.30
2019-04-05T23:37:11.689Z,8.38
2019-04-05T23:42:15.181Z,8.38
2019-04-05T23:47:19.178Z,8.50
2019-04-05T23:52:22.654Z,8.53
2019-04-05T23:57:26.145Z,8.55
